sensor_id;sensor_type;location;lat;lon;timestamp;P1;durP1;ratioP1;P2;durP2;ratioP2
71639;SDS011;60912;48.968;10.124;2023-10-09T00:01:49;12.35;;;4.07;;
71639;SDS011;60912;48.968;10.124;2023-10-09T00:04:16;9.75;;;4.00;;
71639;SDS011;60912;48.968;10.124;2023-10-09T00:06:42;10.17;;;4.30;;
71639;SDS011;60912;48.968;10.124;2023-10-09T00:09:07;10.43;;;3.90;;
71639;SDS011;60912;48.968;10.124;2023-10-09T00:11:56;10.40;;;4.22;;
71639;SDS011;60912;48.968;10.124;2023-10-09T00:14:26;8.67;;;4.03;;
71639;SDS011;60912;48.968;10.124;2023-10-09T00:16:56;10.40;;;4.53;;
71639;SDS011;60912;48.968;10.124;2023-10-09T00:19:41;10.15;;;4.13;;
71639;SDS011;60912;48.968;10.124;2023-10-09T00:22:08;9.20;;;3.72;;
71639;SDS011;60912;48.968;10.124;2023-10-09T00:24:41;8.43;;;4.00;;
71639;SDS011;60912;48.968;10.124;2023-10-09T00:27:11;10.73;;;4.23;;
71639;SDS011;60912;48.968;10.124;2023-10-09T00:29:37;12.43;;;4.18;;
71639;SDS011;60912;48.968;10.124;2023-10-09T00:32:10;10.00;;;4.20;;
71639;SDS011;60912;48.968;10.124;2023-10-09T00:34:40;12.40;;;3.95;;
71639;SDS011;60912;48.968;10.124;2023-10-09T00:37:09;9.70;;;4.20;;
71639;SDS011;60912;48.968;10.124;2023-10-09T00:39:51;10.13;;;4.03;;
71639;SDS011;60912;48.968;10.124;2023-10-09T00:42:25;11.02;;;4.05;;
71639;SDS011;60912;48.968;10.124;2023-10-09T00:45:01;8.93;;;3.85;;
71639;SDS011;60912;48.968;10.124;2023-10-09T00:47:33;10.37;;;3.73;;
71639;SDS011;60912;48.968;10.124;2023-10-09T00:50:00;10.85;;;3.72;;
71639;SDS011;60912;48.968;10.124;2023-10-09T00:52:40;8.05;;;3.55;;
71639;SDS011;60912;48.968;10.124;2023-10-09T00:55:19;10.18;;;3.80;;
71639;SDS011;60912;48.968;10.124;2023-10-09T00:58:04;10.93;;;4.57;;
71639;SDS011;60912;48.968;10.124;2023-10-09T01:00:38;9.50;;;3.57;;
71639;SDS011;60912;48.968;10.124;2023-10-09T01:03:14;9.90;;;4.20;;
71639;SDS011;60912;48.968;10.124;2023-10-09T01:05:41;11.55;;;4.35;;
71639;SDS011;60912;48.968;10.124;2023-10-09T01:08:16;9.45;;;4.07;;
71639;SDS011;60912;48.968;10.124;2023-10-09T01:10:50;14.68;;;4.20;;
71639;SDS011;60912;48.968;10.124;2023-10-09T01:13:21;9.17;;;4.20;;
71639;SDS011;60912;48.968;10.124;2023-10-09T01:16:04;11.45;;;4.18;;
71639;SDS011;60912;48.968;10.124;2023-10-09T01:18:30;12.93;;;4.03;;
71639;SDS011;60912;48.968;10.124;2023-10-09T01:21:01;9.38;;;4.18;;
71639;SDS011;60912;48.968;10.124;2023-10-09T01:23:27;11.73;;;4.03;;
71639;SDS011;60912;48.968;10.124;2023-10-09T01:25:54;10.13;;;4.40;;
71639;SDS011;60912;48.968;10.124;2023-10-09T01:28:20;8.32;;;3.67;;
71639;SDS011;60912;48.968;10.124;2023-10-09T01:30:46;11.07;;;3.80;;
71639;SDS011;60912;48.968;10.124;2023-10-09T01:33:12;11.52;;;4.45;;
71639;SDS011;60912;48.968;10.124;2023-10-09T01:35:52;9.05;;;3.92;;
71639;SDS011;60912;48.968;10.124;2023-10-09T01:38:23;10.63;;;4.03;;
71639;SDS011;60912;48.968;10.124;2023-10-09T01:41:11;9.07;;;3.42;;
71639;SDS011;60912;48.968;10.124;2023-10-09T01:43:41;10.00;;;3.73;;
71639;SDS011;60912;48.968;10.124;2023-10-09T01:46:10;8.48;;;4.00;;
71639;SDS011;60912;48.968;10.124;2023-10-09T01:48:36;10.75;;;3.70;;
71639;SDS011;60912;48.968;10.124;2023-10-09T01:51:05;8.13;;;4.07;;
71639;SDS011;60912;48.968;10.124;2023-10-09T01:53:31;10.57;;;3.93;;
71639;SDS011;60912;48.968;10.124;2023-10-09T01:55:58;10.27;;;3.90;;
71639;SDS011;60912;48.968;10.124;2023-10-09T01:58:34;10.80;;;3.70;;
71639;SDS011;60912;48.968;10.124;2023-10-09T02:00:59;8.90;;;3.67;;
71639;SDS011;60912;48.968;10.124;2023-10-09T02:03:27;10.13;;;4.00;;
71639;SDS011;60912;48.968;10.124;2023-10-09T02:05:54;8.48;;;4.03;;
71639;SDS011;60912;48.968;10.124;2023-10-09T02:08:24;10.45;;;4.07;;
71639;SDS011;60912;48.968;10.124;2023-10-09T02:10:52;9.80;;;4.05;;
71639;SDS011;60912;48.968;10.124;2023-10-09T02:13:21;10.73;;;4.03;;
71639;SDS011;60912;48.968;10.124;2023-10-09T02:15:55;8.98;;;4.20;;
71639;SDS011;60912;48.968;10.124;2023-10-09T02:18:36;9.13;;;3.97;;
71639;SDS011;60912;48.968;10.124;2023-10-09T02:21:07;12.88;;;4.13;;
71639;SDS011;60912;48.968;10.124;2023-10-09T02:23:33;10.93;;;3.70;;
71639;SDS011;60912;48.968;10.124;2023-10-09T02:26:09;9.50;;;3.80;;
71639;SDS011;60912;48.968;10.124;2023-10-09T02:28:43;10.90;;;3.42;;
71639;SDS011;60912;48.968;10.124;2023-10-09T02:31:12;9.30;;;3.47;;
71639;SDS011;60912;48.968;10.124;2023-10-09T02:33:38;9.80;;;3.88;;
71639;SDS011;60912;48.968;10.124;2023-10-09T02:36:04;9.35;;;3.83;;
71639;SDS011;60912;48.968;10.124;2023-10-09T02:38:34;10.00;;;4.20;;
71639;SDS011;60912;48.968;10.124;2023-10-09T02:41:05;10.85;;;3.80;;
71639;SDS011;60912;48.968;10.124;2023-10-09T02:43:31;11.43;;;3.30;;
71639;SDS011;60912;48.968;10.124;2023-10-09T02:46:09;6.50;;;3.47;;
71639;SDS011;60912;48.968;10.124;2023-10-09T02:48:44;10.30;;;3.57;;
71639;SDS011;60912;48.968;10.124;2023-10-09T02:51:16;7.57;;;3.75;;
71639;SDS011;60912;48.968;10.124;2023-10-09T02:54:02;8.82;;;3.78;;
71639;SDS011;60912;48.968;10.124;2023-10-09T02:56:47;8.98;;;3.70;;
71639;SDS011;60912;48.968;10.124;2023-10-09T02:59:20;8.68;;;3.58;;
71639;SDS011;60912;48.968;10.124;2023-10-09T03:01:47;8.70;;;3.80;;
71639;SDS011;60912;48.968;10.124;2023-10-09T03:04:13;11.02;;;3.50;;
71639;SDS011;60912;48.968;10.124;2023-10-09T03:06:39;8.48;;;3.88;;
71639;SDS011;60912;48.968;10.124;2023-10-09T03:09:15;9.27;;;3.80;;
71639;SDS011;60912;48.968;10.124;2023-10-09T03:11:49;9.52;;;4.00;;
71639;SDS011;60912;48.968;10.124;2023-10-09T03:14:36;9.90;;;3.93;;
71639;SDS011;60912;48.968;10.124;2023-10-09T03:17:03;9.07;;;3.47;;
71639;SDS011;60912;48.968;10.124;2023-10-09T03:19:29;10.48;;;3.80;;
71639;SDS011;60912;48.968;10.124;2023-10-09T03:22:02;9.52;;;3.47;;
71639;SDS011;60912;48.968;10.124;2023-10-09T03:24:27;10.10;;;4.10;;
71639;SDS011;60912;48.968;10.124;2023-10-09T03:26:53;10.30;;;3.97;;
71639;SDS011;60912;48.968;10.124;2023-10-09T03:29:21;14.68;;;4.10;;
71639;SDS011;60912;48.968;10.124;2023-10-09T03:31:46;8.82;;;3.70;;
71639;SDS011;60912;48.968;10.124;2023-10-09T03:34:12;10.10;;;3.97;;
71639;SDS011;60912;48.968;10.124;2023-10-09T03:36:37;10.00;;;3.70;;
71639;SDS011;60912;48.968;10.124;2023-10-09T03:39:06;8.50;;;3.72;;
71639;SDS011;60912;48.968;10.124;2023-10-09T03:42:04;9.57;;;3.50;;
71639;SDS011;60912;48.968;10.124;2023-10-09T03:44:33;9.82;;;3.63;;
71639;SDS011;60912;48.968;10.124;2023-10-09T03:47:00;8.63;;;3.43;;
71639;SDS011;60912;48.968;10.124;2023-10-09T03:49:27;11.52;;;4.35;;
71639;SDS011;60912;48.968;10.124;2023-10-09T03:51:52;9.93;;;3.97;;
71639;SDS011;60912;48.968;10.124;2023-10-09T03:54:18;8.70;;;3.63;;
71639;SDS011;60912;48.968;10.124;2023-10-09T03:56:45;10.77;;;3.80;;
71639;SDS011;60912;48.968;10.124;2023-10-09T03:59:15;10.77;;;3.90;;
71639;SDS011;60912;48.968;10.124;2023-10-09T04:01:46;14.05;;;4.15;;
71639;SDS011;60912;48.968;10.124;2023-10-09T04:04:13;14.48;;;4.45;;
71639;SDS011;60912;48.968;10.124;2023-10-09T04:06:39;13.53;;;3.83;;
71639;SDS011;60912;48.968;10.124;2023-10-09T04:09:08;11.88;;;3.83;;
71639;SDS011;60912;48.968;10.124;2023-10-09T04:11:53;9.82;;;3.58;;
71639;SDS011;60912;48.968;10.124;2023-10-09T04:14:38;10.00;;;3.88;;
71639;SDS011;60912;48.968;10.124;2023-10-09T04:17:19;11.67;;;4.00;;
71639;SDS011;60912;48.968;10.124;2023-10-09T04:19:48;14.55;;;4.20;;
71639;SDS011;60912;48.968;10.124;2023-10-09T04:22:34;9.95;;;3.85;;
71639;SDS011;60912;48.968;10.124;2023-10-09T04:25:04;11.48;;;4.30;;
71639;SDS011;60912;48.968;10.124;2023-10-09T04:27:32;14.32;;;4.05;;
71639;SDS011;60912;48.968;10.124;2023-10-09T04:30:01;8.87;;;4.07;;
71639;SDS011;60912;48.968;10.124;2023-10-09T04:32:27;10.00;;;4.22;;
71639;SDS011;60912;48.968;10.124;2023-10-09T04:34:53;11.07;;;4.13;;
71639;SDS011;60912;48.968;10.124;2023-10-09T04:37:41;8.85;;;4.10;;
71639;SDS011;60912;48.968;10.124;2023-10-09T04:40:09;9.10;;;3.92;;
71639;SDS011;60912;48.968;10.124;2023-10-09T04:42:58;9.60;;;3.63;;
71639;SDS011;60912;48.968;10.124;2023-10-09T04:45:24;10.23;;;4.20;;
71639;SDS011;60912;48.968;10.124;2023-10-09T04:48:08;10.82;;;3.75;;
71639;SDS011;60912;48.968;10.124;2023-10-09T04:50:34;12.57;;;4.15;;
71639;SDS011;60912;48.968;10.124;2023-10-09T04:53:00;15.20;;;4.50;;
71639;SDS011;60912;48.968;10.124;2023-10-09T04:55:45;12.52;;;4.38;;
71639;SDS011;60912;48.968;10.124;2023-10-09T04:58:23;10.65;;;4.07;;
71639;SDS011;60912;48.968;10.124;2023-10-09T05:00:51;11.70;;;4.25;;
71639;SDS011;60912;48.968;10.124;2023-10-09T05:03:23;11.57;;;3.83;;
71639;SDS011;60912;48.968;10.124;2023-10-09T05:06:08;11.43;;;3.70;;
71639;SDS011;60912;48.968;10.124;2023-10-09T05:08:46;11.55;;;3.70;;
71639;SDS011;60912;48.968;10.124;2023-10-09T05:11:18;9.68;;;3.35;;
71639;SDS011;60912;48.968;10.124;2023-10-09T05:14:05;11.65;;;3.72;;
71639;SDS011;60912;48.968;10.124;2023-10-09T05:16:37;10.93;;;3.70;;
71639;SDS011;60912;48.968;10.124;2023-10-09T05:19:09;13.13;;;3.97;;
71639;SDS011;60912;48.968;10.124;2023-10-09T05:21:54;11.90;;;3.80;;
71639;SDS011;60912;48.968;10.124;2023-10-09T05:24:23;13.38;;;3.83;;
71639;SDS011;60912;48.968;10.124;2023-10-09T05:26:49;10.43;;;4.10;;
71639;SDS011;60912;48.968;10.124;2023-10-09T05:29:19;11.25;;;3.40;;
71639;SDS011;60912;48.968;10.124;2023-10-09T05:31:51;13.77;;;3.83;;
71639;SDS011;60912;48.968;10.124;2023-10-09T05:34:35;14.05;;;3.72;;
71639;SDS011;60912;48.968;10.124;2023-10-09T05:37:19;12.13;;;3.80;;
71639;SDS011;60912;48.968;10.124;2023-10-09T05:39:54;11.35;;;3.30;;
71639;SDS011;60912;48.968;10.124;2023-10-09T05:44:58;14.90;;;3.97;;
71639;SDS011;60912;48.968;10.124;2023-10-09T05:47:45;12.35;;;4.07;;
71639;SDS011;60912;48.968;10.124;2023-10-09T05:50:29;12.03;;;4.00;;
71639;SDS011;60912;48.968;10.124;2023-10-09T05:53:03;15.20;;;4.05;;
71639;SDS011;60912;48.968;10.124;2023-10-09T05:55:29;19.02;;;4.43;;
71639;SDS011;60912;48.968;10.124;2023-10-09T05:58:14;22.63;;;4.72;;
71639;SDS011;60912;48.968;10.124;2023-10-09T06:00:58;17.38;;;4.65;;
71639;SDS011;60912;48.968;10.124;2023-10-09T06:03:42;12.00;;;4.17;;
71639;SDS011;60912;48.968;10.124;2023-10-09T06:06:14;18.17;;;4.85;;
71639;SDS011;60912;48.968;10.124;2023-10-09T06:08:58;15.02;;;4.43;;
71639;SDS011;60912;48.968;10.124;2023-10-09T06:11:40;18.83;;;4.40;;
71639;SDS011;60912;48.968;10.124;2023-10-09T06:14:23;16.60;;;4.88;;
71639;SDS011;60912;48.968;10.124;2023-10-09T06:16:55;15.23;;;4.50;;
71639;SDS011;60912;48.968;10.124;2023-10-09T06:19:22;16.23;;;4.68;;
71639;SDS011;60912;48.968;10.124;2023-10-09T06:21:48;16.83;;;4.70;;
71639;SDS011;60912;48.968;10.124;2023-10-09T06:24:17;15.90;;;4.88;;
71639;SDS011;60912;48.968;10.124;2023-10-09T06:26:44;19.35;;;4.60;;
71639;SDS011;60912;48.968;10.124;2023-10-09T06:29:19;17.27;;;4.13;;
71639;SDS011;60912;48.968;10.124;2023-10-09T06:32:03;15.02;;;4.40;;
71639;SDS011;60912;48.968;10.124;2023-10-09T06:34:58;15.80;;;5.90;;
71639;SDS011;60912;48.968;10.124;2023-10-09T06:37:43;15.13;;;5.60;;
71639;SDS011;60912;48.968;10.124;2023-10-09T06:40:28;16.63;;;6.28;;
71639;SDS011;60912;48.968;10.124;2023-10-09T06:43:13;13.07;;;5.30;;
71639;SDS011;60912;48.968;10.124;2023-10-09T06:45:47;17.52;;;5.75;;
71639;SDS011;60912;48.968;10.124;2023-10-09T06:48:22;16.60;;;5.38;;
71639;SDS011;60912;48.968;10.124;2023-10-09T06:53:41;18.80;;;5.47;;
71639;SDS011;60912;48.968;10.124;2023-10-09T06:58:55;16.08;;;5.43;;
71639;SDS011;60912;48.968;10.124;2023-10-09T07:01:23;21.42;;;5.13;;
71639;SDS011;60912;48.968;10.124;2023-10-09T07:04:04;17.23;;;5.72;;
71639;SDS011;60912;48.968;10.124;2023-10-09T07:06:46;22.20;;;5.40;;
71639;SDS011;60912;48.968;10.124;2023-10-09T07:09:14;16.23;;;4.70;;
71639;SDS011;60912;48.968;10.124;2023-10-09T07:11:47;14.50;;;4.97;;
71639;SDS011;60912;48.968;10.124;2023-10-09T07:14:17;15.43;;;4.78;;
71639;SDS011;60912;48.968;10.124;2023-10-09T07:16:59;13.82;;;4.20;;
71639;SDS011;60912;48.968;10.124;2023-10-09T07:19:26;15.82;;;4.78;;
71639;SDS011;60912;48.968;10.124;2023-10-09T07:22:08;16.23;;;4.80;;
71639;SDS011;60912;48.968;10.124;2023-10-09T07:27:18;15.70;;;4.50;;
71639;SDS011;60912;48.968;10.124;2023-10-09T07:30:06;17.98;;;5.50;;
71639;SDS011;60912;48.968;10.124;2023-10-09T07:33:01;19.88;;;5.80;;
71639;SDS011;60912;48.968;10.124;2023-10-09T07:35:46;18.83;;;5.70;;
71639;SDS011;60912;48.968;10.124;2023-10-09T07:40:48;21.83;;;6.22;;
71639;SDS011;60912;48.968;10.124;2023-10-09T07:43:24;27.67;;;8.48;;
71639;SDS011;60912;48.968;10.124;2023-10-09T07:46:04;20.67;;;7.50;;
71639;SDS011;60912;48.968;10.124;2023-10-09T07:48:30;17.53;;;7.37;;
71639;SDS011;60912;48.968;10.124;2023-10-09T07:51:17;23.15;;;7.88;;
71639;SDS011;60912;48.968;10.124;2023-10-09T07:53:56;23.15;;;7.63;;
71639;SDS011;60912;48.968;10.124;2023-10-09T07:56:36;20.70;;;7.65;;
71639;SDS011;60912;48.968;10.124;2023-10-09T07:59:10;20.77;;;7.30;;
71639;SDS011;60912;48.968;10.124;2023-10-09T08:01:40;18.67;;;6.40;;
71639;SDS011;60912;48.968;10.124;2023-10-09T08:04:26;17.20;;;6.13;;
71639;SDS011;60912;48.968;10.124;2023-10-09T08:07:11;17.80;;;5.40;;
71639;SDS011;60912;48.968;10.124;2023-10-09T08:10:03;15.23;;;4.63;;
71639;SDS011;60912;48.968;10.124;2023-10-09T08:12:38;17.27;;;4.75;;
71639;SDS011;60912;48.968;10.124;2023-10-09T08:15:12;19.13;;;5.53;;
71639;SDS011;60912;48.968;10.124;2023-10-09T08:17:51;20.33;;;4.95;;
71639;SDS011;60912;48.968;10.124;2023-10-09T08:20:24;18.63;;;4.55;;
71639;SDS011;60912;48.968;10.124;2023-10-09T08:22:53;22.83;;;4.95;;
71639;SDS011;60912;48.968;10.124;2023-10-09T08:25:22;16.63;;;4.38;;
71639;SDS011;60912;48.968;10.124;2023-10-09T08:28:10;16.33;;;4.43;;
71639;SDS011;60912;48.968;10.124;2023-10-09T08:30:39;19.60;;;4.32;;
71639;SDS011;60912;48.968;10.124;2023-10-09T08:33:15;14.73;;;4.18;;
71639;SDS011;60912;48.968;10.124;2023-10-09T08:36:04;21.13;;;4.68;;
71639;SDS011;60912;48.968;10.124;2023-10-09T08:38:32;16.48;;;3.50;;
71639;SDS011;60912;48.968;10.124;2023-10-09T08:41:32;20.07;;;3.80;;
71639;SDS011;60912;48.968;10.124;2023-10-09T08:43:55;18.92;;;3.50;;
71639;SDS011;60912;48.968;10.124;2023-10-09T08:48:56;21.92;;;3.35;;
71639;SDS011;60912;48.968;10.124;2023-10-09T08:51:26;15.75;;;3.60;;
71639;SDS011;60912;48.968;10.124;2023-10-09T08:53:54;18.60;;;4.10;;
71639;SDS011;60912;48.968;10.124;2023-10-09T08:56:20;17.67;;;3.72;;
71639;SDS011;60912;48.968;10.124;2023-10-09T09:01:19;19.90;;;3.10;;
71639;SDS011;60912;48.968;10.124;2023-10-09T09:03:47;16.37;;;3.40;;
71639;SDS011;60912;48.968;10.124;2023-10-09T09:06:13;17.00;;;3.70;;
71639;SDS011;60912;48.968;10.124;2023-10-09T09:08:39;16.45;;;3.58;;
71639;SDS011;60912;48.968;10.124;2023-10-09T09:11:09;19.02;;;3.88;;
71639;SDS011;60912;48.968;10.124;2023-10-09T09:13:46;14.25;;;3.40;;
71639;SDS011;60912;48.968;10.124;2023-10-09T09:21:26;16.40;;;3.50;;
71639;SDS011;60912;48.968;10.124;2023-10-09T09:24:01;22.83;;;3.63;;
71639;SDS011;60912;48.968;10.124;2023-10-09T09:26:34;19.55;;;3.65;;
71639;SDS011;60912;48.968;10.124;2023-10-09T09:29:10;16.70;;;3.43;;
71639;SDS011;60912;48.968;10.124;2023-10-09T09:31:36;20.67;;;3.38;;
71639;SDS011;60912;48.968;10.124;2023-10-09T09:34:04;19.50;;;3.42;;
71639;SDS011;60912;48.968;10.124;2023-10-09T09:36:59;18.60;;;3.55;;
71639;SDS011;60912;48.968;10.124;2023-10-09T09:39:27;17.27;;;3.72;;
71639;SDS011;60912;48.968;10.124;2023-10-09T09:41:57;14.30;;;2.93;;
71639;SDS011;60912;48.968;10.124;2023-10-09T09:44:39;18.02;;;3.70;;
71639;SDS011;60912;48.968;10.124;2023-10-09T09:47:14;17.83;;;4.28;;
71639;SDS011;60912;48.968;10.124;2023-10-09T09:49:54;12.27;;;3.28;;
71639;SDS011;60912;48.968;10.124;2023-10-09T09:52:36;17.95;;;3.30;;
71639;SDS011;60912;48.968;10.124;2023-10-09T09:55:08;17.03;;;3.53;;
71639;SDS011;60912;48.968;10.124;2023-10-09T09:57:46;17.88;;;3.92;;
71639;SDS011;60912;48.968;10.124;2023-10-09T10:00:16;20.52;;;3.80;;
71639;SDS011;60912;48.968;10.124;2023-10-09T10:03:12;14.85;;;3.70;;
71639;SDS011;60912;48.968;10.124;2023-10-09T10:05:40;15.88;;;3.67;;
71639;SDS011;60912;48.968;10.124;2023-10-09T10:24:55;20.60;;;3.47;;
71639;SDS011;60912;48.968;10.124;2023-10-09T10:27:27;19.23;;;3.28;;
71639;SDS011;60912;48.968;10.124;2023-10-09T10:35:17;17.55;;;4.00;;
71639;SDS011;60912;48.968;10.124;2023-10-09T10:37:45;17.20;;;3.80;;
71639;SDS011;60912;48.968;10.124;2023-10-09T10:40:26;13.88;;;3.10;;
71639;SDS011;60912;48.968;10.124;2023-10-09T10:43:17;20.98;;;3.67;;
71639;SDS011;60912;48.968;10.124;2023-10-09T10:46:07;16.52;;;3.55;;
71639;SDS011;60912;48.968;10.124;2023-10-09T10:48:51;15.85;;;3.08;;
71639;SDS011;60912;48.968;10.124;2023-10-09T10:51:36;18.20;;;3.33;;
71639;SDS011;60912;48.968;10.124;2023-10-09T10:54:05;16.77;;;3.42;;
71639;SDS011;60912;48.968;10.124;2023-10-09T10:56:50;17.00;;;3.25;;
71639;SDS011;60912;48.968;10.124;2023-10-09T10:59:19;12.57;;;3.33;;
71639;SDS011;60912;48.968;10.124;2023-10-09T11:01:48;10.77;;;2.80;;
71639;SDS011;60912;48.968;10.124;2023-10-09T11:04:24;14.77;;;3.80;;
71639;SDS011;60912;48.968;10.124;2023-10-09T11:07:00;12.20;;;3.10;;
71639;SDS011;60912;48.968;10.124;2023-10-09T11:09:47;14.55;;;3.40;;
71639;SDS011;60912;48.968;10.124;2023-10-09T11:12:28;11.93;;;3.30;;
71639;SDS011;60912;48.968;10.124;2023-10-09T11:15:14;14.43;;;3.15;;
71639;SDS011;60912;48.968;10.124;2023-10-09T11:18:03;11.50;;;3.17;;
71639;SDS011;60912;48.968;10.124;2023-10-09T11:20:36;18.98;;;3.50;;
71639;SDS011;60912;48.968;10.124;2023-10-09T11:23:18;17.55;;;3.17;;
71639;SDS011;60912;48.968;10.124;2023-10-09T11:25:54;14.20;;;3.00;;
71639;SDS011;60912;48.968;10.124;2023-10-09T11:28:33;17.63;;;3.80;;
71639;SDS011;60912;48.968;10.124;2023-10-09T11:31:13;16.47;;;3.17;;
71639;SDS011;60912;48.968;10.124;2023-10-09T11:33:50;17.25;;;3.70;;
71639;SDS011;60912;48.968;10.124;2023-10-09T11:36:17;19.02;;;3.70;;
71639;SDS011;60912;48.968;10.124;2023-10-09T11:38:59;12.98;;;3.22;;
71639;SDS011;60912;48.968;10.124;2023-10-09T11:41:42;15.30;;;3.03;;
71639;SDS011;60912;48.968;10.124;2023-10-09T11:44:07;19.03;;;3.13;;
71639;SDS011;60912;48.968;10.124;2023-10-09T11:53:40;14.13;;;3.08;;
71639;SDS011;60912;48.968;10.124;2023-10-09T11:56:10;16.65;;;3.58;;
71639;SDS011;60912;48.968;10.124;2023-10-09T11:58:41;16.80;;;3.53;;
71639;SDS011;60912;48.968;10.124;2023-10-09T12:01:10;12.13;;;2.83;;
71639;SDS011;60912;48.968;10.124;2023-10-09T12:03:42;15.00;;;3.30;;
71639;SDS011;60912;48.968;10.124;2023-10-09T12:06:09;20.02;;;4.40;;
71639;SDS011;60912;48.968;10.124;2023-10-09T12:08:38;13.32;;;3.15;;
71639;SDS011;60912;48.968;10.124;2023-10-09T12:11:06;14.80;;;3.90;;
71639;SDS011;60912;48.968;10.124;2023-10-09T12:13:36;17.80;;;3.20;;
71639;SDS011;60912;48.968;10.124;2023-10-09T12:16:07;12.23;;;3.13;;
71639;SDS011;60912;48.968;10.124;2023-10-09T12:18:36;17.48;;;3.17;;
71639;SDS011;60912;48.968;10.124;2023-10-09T12:21:04;19.40;;;3.70;;
71639;SDS011;60912;48.968;10.124;2023-10-09T12:23:31;15.32;;;3.60;;
71639;SDS011;60912;48.968;10.124;2023-10-09T12:26:01;15.13;;;3.42;;
71639;SDS011;60912;48.968;10.124;2023-10-09T12:28:27;17.23;;;3.20;;
71639;SDS011;60912;48.968;10.124;2023-10-09T12:30:53;15.20;;;3.40;;
71639;SDS011;60912;48.968;10.124;2023-10-09T12:33:19;22.70;;;3.73;;
71639;SDS011;60912;48.968;10.124;2023-10-09T12:35:52;13.65;;;3.50;;
71639;SDS011;60912;48.968;10.124;2023-10-09T12:38:24;14.60;;;3.33;;
71639;SDS011;60912;48.968;10.124;2023-10-09T12:41:06;13.10;;;3.10;;
71639;SDS011;60912;48.968;10.124;2023-10-09T12:43:51;13.60;;;3.40;;
71639;SDS011;60912;48.968;10.124;2023-10-09T12:46:17;14.53;;;3.60;;
71639;SDS011;60912;48.968;10.124;2023-10-09T12:52:09;19.58;;;3.97;;
71639;SDS011;60912;48.968;10.124;2023-10-09T12:54:42;15.05;;;3.47;;
71639;SDS011;60912;48.968;10.124;2023-10-09T12:57:08;16.75;;;3.42;;
71639;SDS011;60912;48.968;10.124;2023-10-09T12:59:38;16.47;;;3.20;;
71639;SDS011;60912;48.968;10.124;2023-10-09T13:02:05;21.60;;;3.60;;
71639;SDS011;60912;48.968;10.124;2023-10-09T13:04:31;14.60;;;3.17;;
71639;SDS011;60912;48.968;10.124;2023-10-09T13:06:57;16.83;;;3.28;;
71639;SDS011;60912;48.968;10.124;2023-10-09T13:09:27;17.27;;;3.63;;
71639;SDS011;60912;48.968;10.124;2023-10-09T13:12:28;11.98;;;3.40;;
71639;SDS011;60912;48.968;10.124;2023-10-09T13:14:54;18.52;;;3.60;;
71639;SDS011;60912;48.968;10.124;2023-10-09T13:17:19;20.47;;;3.77;;
71639;SDS011;60912;48.968;10.124;2023-10-09T13:19:46;12.50;;;3.92;;
71639;SDS011;60912;48.968;10.124;2023-10-09T13:22:12;15.70;;;3.50;;
71639;SDS011;60912;48.968;10.124;2023-10-09T13:24:41;16.80;;;3.78;;
71639;SDS011;60912;48.968;10.124;2023-10-09T13:27:06;14.65;;;3.88;;
71639;SDS011;60912;48.968;10.124;2023-10-09T13:29:35;11.07;;;3.45;;
71639;SDS011;60912;48.968;10.124;2023-10-09T13:32:05;12.03;;;3.83;;
71639;SDS011;60912;48.968;10.124;2023-10-09T13:34:38;17.52;;;3.75;;
71639;SDS011;60912;48.968;10.124;2023-10-09T13:37:09;14.13;;;3.58;;
71639;SDS011;60912;48.968;10.124;2023-10-09T13:39:39;15.52;;;3.70;;
71639;SDS011;60912;48.968;10.124;2023-10-09T13:42:17;14.93;;;3.95;;
71639;SDS011;60912;48.968;10.124;2023-10-09T13:44:42;16.67;;;4.30;;
71639;SDS011;60912;48.968;10.124;2023-10-09T13:47:08;16.33;;;4.05;;
71639;SDS011;60912;48.968;10.124;2023-10-09T13:49:44;19.70;;;3.95;;
71639;SDS011;60912;48.968;10.124;2023-10-09T13:52:17;20.80;;;4.10;;
71639;SDS011;60912;48.968;10.124;2023-10-09T13:58:18;18.50;;;3.80;;
71639;SDS011;60912;48.968;10.124;2023-10-09T14:00:45;16.38;;;4.05;;
71639;SDS011;60912;48.968;10.124;2023-10-09T14:03:12;16.45;;;4.05;;
71639;SDS011;60912;48.968;10.124;2023-10-09T14:05:57;14.07;;;3.97;;
71639;SDS011;60912;48.968;10.124;2023-10-09T14:08:36;17.95;;;4.50;;
71639;SDS011;60912;48.968;10.124;2023-10-09T14:11:10;15.18;;;4.03;;
71639;SDS011;60912;48.968;10.124;2023-10-09T14:13:41;14.65;;;4.25;;
71639;SDS011;60912;48.968;10.124;2023-10-09T14:16:13;17.17;;;5.10;;
71639;SDS011;60912;48.968;10.124;2023-10-09T14:18:58;16.70;;;3.73;;
71639;SDS011;60912;48.968;10.124;2023-10-09T14:21:29;18.35;;;4.40;;
71639;SDS011;60912;48.968;10.124;2023-10-09T14:23:58;21.27;;;4.45;;
71639;SDS011;60912;48.968;10.124;2023-10-09T14:26:25;15.98;;;4.60;;
71639;SDS011;60912;48.968;10.124;2023-10-09T14:28:52;17.10;;;4.25;;
71639;SDS011;60912;48.968;10.124;2023-10-09T14:31:23;15.37;;;4.27;;
71639;SDS011;60912;48.968;10.124;2023-10-09T14:33:58;15.23;;;3.90;;
71639;SDS011;60912;48.968;10.124;2023-10-09T14:36:27;18.25;;;4.72;;
71639;SDS011;60912;48.968;10.124;2023-10-09T14:38:59;18.60;;;4.40;;
71639;SDS011;60912;48.968;10.124;2023-10-09T14:41:30;17.08;;;4.20;;
71639;SDS011;60912;48.968;10.124;2023-10-09T14:43:58;11.83;;;4.40;;
71639;SDS011;60912;48.968;10.124;2023-10-09T14:46:25;20.25;;;4.32;;
71639;SDS011;60912;48.968;10.124;2023-10-09T14:48:53;17.13;;;4.53;;
71639;SDS011;60912;48.968;10.124;2023-10-09T14:51:23;17.55;;;4.72;;
71639;SDS011;60912;48.968;10.124;2023-10-09T14:53:56;16.55;;;3.97;;
71639;SDS011;60912;48.968;10.124;2023-10-09T14:56:28;13.43;;;4.03;;
71639;SDS011;60912;48.968;10.124;2023-10-09T14:58:55;12.73;;;4.57;;
71639;SDS011;60912;48.968;10.124;2023-10-09T15:01:25;14.98;;;4.70;;
71639;SDS011;60912;48.968;10.124;2023-10-09T15:03:54;13.25;;;5.30;;
71639;SDS011;60912;48.968;10.124;2023-10-09T15:06:26;16.13;;;5.40;;
71639;SDS011;60912;48.968;10.124;2023-10-09T15:08:53;17.27;;;4.83;;
71639;SDS011;60912;48.968;10.124;2023-10-09T15:11:24;13.50;;;5.45;;
71639;SDS011;60912;48.968;10.124;2023-10-09T15:13:51;16.35;;;5.30;;
71639;SDS011;60912;48.968;10.124;2023-10-09T15:19:24;14.00;;;5.30;;
71639;SDS011;60912;48.968;10.124;2023-10-09T15:21:56;16.97;;;5.10;;
71639;SDS011;60912;48.968;10.124;2023-10-09T15:24:23;15.10;;;4.88;;
71639;SDS011;60912;48.968;10.124;2023-10-09T15:26:50;17.55;;;4.72;;
71639;SDS011;60912;48.968;10.124;2023-10-09T15:29:22;20.33;;;5.22;;
71639;SDS011;60912;48.968;10.124;2023-10-09T15:32:02;14.57;;;5.22;;
71639;SDS011;60912;48.968;10.124;2023-10-09T15:34:33;17.27;;;5.20;;
71639;SDS011;60912;48.968;10.124;2023-10-09T15:37:01;16.15;;;5.25;;
71639;SDS011;60912;48.968;10.124;2023-10-09T15:39:28;13.35;;;4.60;;
71639;SDS011;60912;48.968;10.124;2023-10-09T15:41:55;13.80;;;4.57;;
71639;SDS011;60912;48.968;10.124;2023-10-09T15:44:21;15.17;;;4.63;;
71639;SDS011;60912;48.968;10.124;2023-10-09T15:46:49;15.30;;;4.90;;
71639;SDS011;60912;48.968;10.124;2023-10-09T15:49:15;18.67;;;5.10;;
71639;SDS011;60912;48.968;10.124;2023-10-09T15:51:40;14.13;;;4.93;;
71639;SDS011;60912;48.968;10.124;2023-10-09T15:54:08;16.45;;;4.90;;
71639;SDS011;60912;48.968;10.124;2023-10-09T15:56:36;12.18;;;4.53;;
71639;SDS011;60912;48.968;10.124;2023-10-09T15:59:04;12.52;;;4.60;;
71639;SDS011;60912;48.968;10.124;2023-10-09T16:01:30;14.40;;;4.73;;